createdAt,value
2016-07-20T00:00:49.249Z,23.45
2016-07-20T00:01:49.255Z,23.37
2016-07-20T00:02:49.268Z,23.32
2016-07-20T00:03:49.273Z,23.32
2016-07-20T00:04:49.272Z,23.32
2016-07-20T00:05:49.271Z,23.34
2016-07-20T00:06:49.300Z,23.34
2016-07-20T00:07:49.318Z,23.37
2016-07-20T00:08:49.313Z,23.35
2016-07-20T00:09:49.312Z,23.35
2016-07-20T00:10:49.330Z,23.35
2016-07-20T00:11:49.354Z,23.38
2016-07-20T00:12:49.342Z,23.35
2016-07-20T00:13:49.343Z,23.37
2016-07-20T00:14:49.413Z,23.32
2016-07-20T00:15:49.359Z,23.35
2016-07-20T00:16:49.395Z,23.37
2016-07-20T00:17:49.402Z,23.26
2016-07-20T00:18:49.421Z,23.34
2016-07-20T00:19:49.426Z,23.32
2016-07-20T00:20:49.396Z,23.4
2016-07-20T00:21:49.407Z,23.32
2016-07-20T00:22:49.427Z,23.28
2016-07-20T00:23:49.431Z,23.32
2016-07-20T00:24:49.461Z,23.28
2016-07-20T00:25:49.463Z,23.29
2016-07-20T00:26:49.474Z,23.26
2016-07-20T00:27:49.456Z,23.26
2016-07-20T00:28:49.496Z,23.29
2016-07-20T00:29:49.470Z,23.28
2016-07-20T00:30:49.479Z,23.15
2016-07-20T00:31:49.507Z,23.28
2016-07-20T00:32:49.517Z,23.18
2016-07-20T00:33:49.504Z,23.24
2016-07-20T00:34:49.547Z,23.25
2016-07-20T00:35:49.558Z,23.19
2016-07-20T00:36:49.554Z,23.24
2016-07-20T00:37:49.565Z,23.21
2016-07-20T00:38:49.573Z,23.21
2016-07-20T00:39:49.591Z,23.25
2016-07-20T00:40:49.589Z,23.24
2016-07-20T00:41:49.574Z,23.19
2016-07-20T00:42:49.583Z,23.26
2016-07-20T00:43:49.592Z,23.21
2016-07-20T00:44:49.635Z,23.24
2016-07-20T00:45:49.627Z,23.21
2016-07-20T00:46:49.616Z,23.22
2016-07-20T00:47:49.631Z,23.25
2016-07-20T00:48:49.656Z,23.21
2016-07-20T00:49:49.677Z,23.18
2016-07-20T00:50:49.672Z,23.19
2016-07-20T00:51:49.662Z,23.18
2016-07-20T00:52:49.694Z,23.19
2016-07-20T00:53:49.676Z,23.15
2016-07-20T00:54:49.706Z,23.21
2016-07-20T00:55:49.717Z,23.14
2016-07-20T00:56:49.706Z,23.18
2016-07-20T00:57:49.731Z,23.18
2016-07-20T00:58:49.720Z,23.21
2016-07-20T00:59:49.726Z,23.12
2016-07-20T01:00:49.749Z,23.16
2016-07-20T01:01:49.762Z,23.21
2016-07-20T01:02:49.774Z,23.15
2016-07-20T01:03:49.778Z,23.18
2016-07-20T01:04:49.801Z,23.16
2016-07-20T01:05:49.797Z,23.19
2016-07-20T01:06:49.804Z,23.16
2016-07-20T01:07:49.818Z,23.14
2016-07-20T01:08:49.809Z,23.12
2016-07-20T01:09:49.807Z,23.12
2016-07-20T01:10:49.832Z,23.09
2016-07-20T01:11:49.834Z,23.12
2016-07-20T01:12:49.848Z,23.07
2016-07-20T01:13:49.866Z,23.09
2016-07-20T01:14:49.867Z,23.1
2016-07-20T01:15:49.881Z,23.12
2016-07-20T01:16:49.896Z,23.1
2016-07-20T01:17:50.586Z,23.12
2016-07-20T01:18:49.899Z,23.12
2016-07-20T01:19:49.925Z,23.12
2016-07-20T01:20:49.908Z,23.1
2016-07-20T01:21:49.935Z,23.12
2016-07-20T01:22:49.938Z,23.12
2016-07-20T01:23:49.968Z,23.07
2016-07-20T01:24:49.971Z,23.12
2016-07-20T01:25:49.964Z,23.09
2016-07-20T01:26:49.972Z,23.07
2016-07-20T01:27:49.967Z,23.07
2016-07-20T01:28:49.991Z,23.09
2016-07-20T01:29:50.005Z,23.07
2016-07-20T01:30:50.010Z,23.07
2016-07-20T01:31:49.998Z,23.1
2016-07-20T01:32:50.015Z,23.1
2016-07-20T01:33:50.036Z,23.1
2016-07-20T01:34:50.044Z,23.04
2016-07-20T01:35:50.042Z,23.07
2016-07-20T01:36:50.053Z,23.04
2016-07-20T01:37:50.058Z,23.06
2016-07-20T01:38:50.083Z,23.07
2016-07-20T01:39:50.071Z,23.01
2016-07-20T01:40:50.093Z,23.07
2016-07-20T01:41:50.094Z,23.01
2016-07-20T01:42:50.105Z,23.04
2016-07-20T01:43:50.137Z,23.06
2016-07-20T01:44:50.106Z,23.01
2016-07-20T01:45:50.147Z,23.1
2016-07-20T01:46:50.156Z,23.03
2016-07-20T01:47:50.152Z,23
2016-07-20T01:48:50.138Z,23
2016-07-20T01:49:50.180Z,23.01
2016-07-20T01:50:50.172Z,23.03
2016-07-20T01:51:50.198Z,22.99
2016-07-20T01:52:50.188Z,23.04
2016-07-20T01:53:50.203Z,23.12
2016-07-20T01:54:50.210Z,23.04
2016-07-20T01:55:50.223Z,23
2016-07-20T01:56:50.229Z,23
2016-07-20T01:57:50.239Z,23
2016-07-20T01:58:50.230Z,22.97
2016-07-20T01:59:50.262Z,23.04
2016-07-20T02:00:50.241Z,23.01
2016-07-20T02:01:50.261Z,23.01
2016-07-20T02:02:50.262Z,23.06
2016-07-20T02:03:50.281Z,23.06
2016-07-20T02:04:50.282Z,23.03
2016-07-20T02:05:50.304Z,23.04
2016-07-20T02:06:50.297Z,23.03
2016-07-20T02:07:50.345Z,23.04
2016-07-20T02:08:50.332Z,23.01
2016-07-20T02:09:50.328Z,22.99
2016-07-20T02:10:50.345Z,23
2016-07-20T02:11:50.350Z,23.03
2016-07-20T02:12:50.369Z,23.01
2016-07-20T02:13:50.377Z,23.01
2016-07-20T02:14:50.380Z,23.01
2016-07-20T02:15:50.368Z,22.99
2016-07-20T02:16:50.409Z,23.01
2016-07-20T02:17:50.401Z,22.91
2016-07-20T02:18:50.404Z,22.99
2016-07-20T02:19:50.421Z,22.97
2016-07-20T02:20:50.420Z,23
2016-07-20T02:21:50.447Z,23.01
2016-07-20T02:22:50.446Z,22.94
2016-07-20T02:23:50.457Z,23.03
2016-07-20T02:24:50.458Z,22.94
2016-07-20T02:25:50.466Z,23
2016-07-20T02:26:50.493Z,23.04
2016-07-20T02:27:50.489Z,23.03
2016-07-20T02:28:50.504Z,22.91
2016-07-20T02:29:50.501Z,22.94
2016-07-20T02:30:50.526Z,22.91
2016-07-20T02:31:50.528Z,22.92
2016-07-20T02:32:50.543Z,22.92
2016-07-20T02:33:50.539Z,22.96
2016-07-20T02:34:50.543Z,22.89
2016-07-20T02:35:50.545Z,22.97
2016-07-20T02:36:50.554Z,22.92
2016-07-20T02:37:50.573Z,22.97
2016-07-20T02:38:50.598Z,22.99
2016-07-20T02:39:50.593Z,22.99
2016-07-20T02:40:50.593Z,22.97
2016-07-20T02:41:50.606Z,22.91
2016-07-20T02:42:50.602Z,22.92
2016-07-20T02:43:50.625Z,22.92
2016-07-20T02:44:50.617Z,22.97
2016-07-20T02:45:50.657Z,22.97
2016-07-20T02:46:50.652Z,22.99
2016-07-20T02:47:50.650Z,22.94
2016-07-20T02:48:50.662Z,22.96
2016-07-20T02:49:50.664Z,22.96
2016-07-20T02:50:50.693Z,22.94
2016-07-20T02:51:50.673Z,22.94
2016-07-20T02:52:50.691Z,22.92
2016-07-20T02:53:50.718Z,22.99
2016-07-20T02:54:50.729Z,22.92
2016-07-20T02:55:50.716Z,22.94
2016-07-20T02:56:50.722Z,22.91
2016-07-20T02:57:50.711Z,22.89
2016-07-20T02:58:50.740Z,22.89
2016-07-20T02:59:50.758Z,22.89
2016-07-20T03:00:50.744Z,22.89
2016-07-20T03:01:50.771Z,22.86
2016-07-20T03:02:50.772Z,22.89
2016-07-20T03:03:50.778Z,22.92
2016-07-20T03:04:50.792Z,22.92
2016-07-20T03:05:50.813Z,22.96
2016-07-20T03:06:50.821Z,22.92
2016-07-20T03:07:50.814Z,22.92
2016-07-20T03:08:50.846Z,22.97
2016-07-20T03:09:50.834Z,22.89
2016-07-20T03:10:50.836Z,22.94
2016-07-20T03:11:50.835Z,22.89
2016-07-20T03:12:50.880Z,22.96
2016-07-20T03:13:50.852Z,22.97
2016-07-20T03:14:50.894Z,22.89
2016-07-20T03:15:50.895Z,22.96
2016-07-20T03:16:50.916Z,22.92
2016-07-20T03:17:50.899Z,22.89
2016-07-20T03:18:50.920Z,22.89
2016-07-20T03:19:50.934Z,22.92
2016-07-20T03:20:50.925Z,22.89
2016-07-20T03:21:50.927Z,22.94
2016-07-20T03:22:50.933Z,22.91
2016-07-20T03:23:50.957Z,22.89
2016-07-20T03:24:50.939Z,22.89
2016-07-20T03:25:50.979Z,22.88
2016-07-20T03:26:50.988Z,22.88
2016-07-20T03:27:50.978Z,22.88
2016-07-20T03:28:50.974Z,22.92
2016-07-20T03:29:51.016Z,22.96
2016-07-20T03:30:51.013Z,22.88
2016-07-20T03:31:51.008Z,22.96
2016-07-20T03:32:51.018Z,22.89
2016-07-20T03:33:51.036Z,22.89
2016-07-20T03:34:51.035Z,22.94
2016-07-20T03:35:51.032Z,22.92
2016-07-20T03:36:51.063Z,22.89
2016-07-20T03:37:51.064Z,22.89
2016-07-20T03:38:51.081Z,22.96
2016-07-20T03:39:51.078Z,22.91
2016-07-20T03:40:51.098Z,22.91
2016-07-20T03:41:51.104Z,22.89
2016-07-20T03:42:51.109Z,22.82
2016-07-20T03:43:51.144Z,22.92
2016-07-20T03:44:51.117Z,22.89
2016-07-20T03:45:51.158Z,22.89
2016-07-20T03:46:51.161Z,22.91
2016-07-20T03:47:51.145Z,22.92
2016-07-20T03:48:51.153Z,22.82
2016-07-20T03:49:51.172Z,22.89
2016-07-20T03:50:51.184Z,22.88
2016-07-20T03:51:51.185Z,22.97
2016-07-20T03:52:51.191Z,22.89
2016-07-20T03:53:51.193Z,22.91
2016-07-20T03:54:51.224Z,22.91
2016-07-20T03:55:51.228Z,22.92
2016-07-20T03:56:51.217Z,22.92
2016-07-20T03:57:51.229Z,22.94
2016-07-20T03:58:51.237Z,22.91
2016-07-20T03:59:51.260Z,22.91
2016-07-20T04:00:51.269Z,22.91
2016-07-20T04:01:51.263Z,22.89
2016-07-20T04:02:51.262Z,22.92
2016-07-20T04:03:51.290Z,22.89
2016-07-20T04:04:51.304Z,22.89
2016-07-20T04:05:51.289Z,22.84
2016-07-20T04:06:51.317Z,22.88
2016-07-20T04:07:51.304Z,22.89
2016-07-20T04:08:51.303Z,22.81
2016-07-20T04:09:51.343Z,22.91
2016-07-20T04:10:51.340Z,22.92
2016-07-20T04:11:51.331Z,22.91
2016-07-20T04:12:51.355Z,22.88
2016-07-20T04:13:51.383Z,22.81
2016-07-20T04:14:51.370Z,22.86
2016-07-20T04:15:51.380Z,22.92
2016-07-20T04:16:51.385Z,22.92
2016-07-20T04:17:51.408Z,22.92
2016-07-20T04:18:51.410Z,22.92
2016-07-20T04:19:51.412Z,22.96
2016-07-20T04:20:51.421Z,22.97
2016-07-20T04:21:51.442Z,22.91
2016-07-20T04:22:51.439Z,22.92
2016-07-20T04:23:51.460Z,22.91
2016-07-20T04:24:51.477Z,22.94
2016-07-20T04:25:51.472Z,22.89
2016-07-20T04:26:51.475Z,22.89
2016-07-20T04:27:51.461Z,22.89
2016-07-20T04:28:51.493Z,22.92
2016-07-20T04:29:51.505Z,22.92
2016-07-20T04:30:51.515Z,22.91
2016-07-20T04:31:51.527Z,22.86
2016-07-20T04:32:51.505Z,23
2016-07-20T04:33:51.536Z,22.89
2016-07-20T04:34:51.548Z,22.96
2016-07-20T04:35:51.578Z,22.92
2016-07-20T04:36:51.556Z,22.86
2016-07-20T04:37:51.567Z,22.94
2016-07-20T04:38:51.579Z,22.91
2016-07-20T04:39:51.598Z,22.94
2016-07-20T04:40:51.589Z,22.96
2016-07-20T04:41:51.595Z,22.85
2016-07-20T04:42:51.609Z,22.92
2016-07-20T04:43:51.616Z,22.94
2016-07-20T04:44:51.602Z,22.91
2016-07-20T04:45:51.624Z,22.94
2016-07-20T04:46:51.634Z,22.94
2016-07-20T04:47:51.642Z,22.99
2016-07-20T04:48:51.642Z,22.88
2016-07-20T04:49:51.654Z,22.97
2016-07-20T04:50:51.676Z,22.96
2016-07-20T04:51:51.702Z,23
2016-07-20T04:52:51.694Z,23
2016-07-20T04:53:51.706Z,22.96
2016-07-20T04:54:51.721Z,23
2016-07-20T04:55:51.731Z,22.97
2016-07-20T04:56:52.434Z,22.97
2016-07-20T04:57:51.724Z,22.89
2016-07-20T04:58:51.746Z,22.89
2016-07-20T04:59:51.723Z,22.96
2016-07-20T05:00:51.743Z,22.91
2016-07-20T05:01:51.750Z,22.97
2016-07-20T05:02:51.771Z,23
2016-07-20T05:03:51.775Z,22.91
2016-07-20T05:04:51.783Z,23.01
2016-07-20T05:05:51.790Z,22.97
2016-07-20T05:06:51.800Z,23
2016-07-20T05:07:51.802Z,22.94
2016-07-20T05:08:51.811Z,22.91
2016-07-20T05:09:51.826Z,22.99
2016-07-20T05:10:51.821Z,23.03
2016-07-20T05:11:51.842Z,22.99
2016-07-20T05:12:51.855Z,23
2016-07-20T05:13:51.853Z,22.97
2016-07-20T05:14:51.875Z,23.03
2016-07-20T05:15:51.866Z,23.01
2016-07-20T05:16:51.870Z,23.01
2016-07-20T05:17:51.899Z,23.03
2016-07-20T05:18:51.900Z,23.04
2016-07-20T05:19:51.914Z,23.07
2016-07-20T05:20:51.901Z,23.01
2016-07-20T05:21:51.964Z,23
2016-07-20T05:22:51.940Z,23.06
2016-07-20T05:23:51.941Z,23.06
2016-07-20T05:24:51.953Z,23
2016-07-20T05:25:51.944Z,23.07
2016-07-20T05:26:51.985Z,22.96
2016-07-20T05:27:51.976Z,23.01
2016-07-20T05:28:52.010Z,23.01
2016-07-20T05:29:51.993Z,23
2016-07-20T05:30:52.010Z,23.07
2016-07-20T05:31:52.014Z,23.1
2016-07-20T05:32:52.042Z,22.99
2016-07-20T05:33:52.010Z,23.01
2016-07-20T05:34:52.037Z,23.01
2016-07-20T05:35:52.061Z,23.01
2016-07-20T05:36:52.039Z,23.09
2016-07-20T05:37:52.039Z,23.03
2016-07-20T05:38:52.055Z,23.04
2016-07-20T05:39:52.762Z,23.01
2016-07-20T05:40:52.090Z,23.01
2016-07-20T05:41:52.081Z,23.15
2016-07-20T05:42:52.129Z,23.04
2016-07-20T05:43:52.096Z,23.01
2016-07-20T05:44:52.131Z,23.03
2016-07-20T05:45:52.153Z,23.01
2016-07-20T05:46:52.125Z,23.1
2016-07-20T05:47:52.166Z,23.07
2016-07-20T05:48:52.136Z,23.06
2016-07-20T05:49:52.168Z,23.06
2016-07-20T05:50:52.183Z,23.1
2016-07-20T05:51:52.177Z,23.07
2016-07-20T05:52:52.180Z,23.09
2016-07-20T05:53:52.213Z,23.09
2016-07-20T05:54:52.215Z,23.07
2016-07-20T05:55:52.195Z,23.1
2016-07-20T05:56:52.203Z,23.1
2016-07-20T05:57:52.227Z,23.09
2016-07-20T05:58:52.238Z,23.1
2016-07-20T05:59:52.249Z,23.06
2016-07-20T06:00:52.257Z,23.07
2016-07-20T06:01:52.280Z,23.07
2016-07-20T06:02:52.258Z,23.07
2016-07-20T06:03:52.296Z,23.12
2016-07-20T06:04:52.278Z,23.1
2016-07-20T06:05:52.295Z,23.09
2016-07-20T06:06:52.311Z,23.09
2016-07-20T06:07:52.319Z,23.06
2016-07-20T06:08:52.322Z,23.09
2016-07-20T06:09:52.342Z,23.06
2016-07-20T06:10:52.345Z,23.1
2016-07-20T06:11:53.205Z,23.07
2016-07-20T06:12:52.363Z,23.09
2016-07-20T06:13:52.378Z,23.06
2016-07-20T06:14:52.389Z,23.06
2016-07-20T06:15:52.366Z,23.09
2016-07-20T06:16:52.381Z,23.15
2016-07-20T06:17:52.393Z,23.1
2016-07-20T06:18:52.411Z,23.15
2016-07-20T06:19:52.423Z,23.12
2016-07-20T06:20:52.438Z,23.07
2016-07-20T06:21:52.418Z,23.12
2016-07-20T06:22:52.437Z,23.14
2016-07-20T06:23:52.448Z,23.12
2016-07-20T06:24:52.451Z,23.12
2016-07-20T06:25:52.462Z,23.19
2016-07-20T06:26:52.472Z,23.15
2016-07-20T06:27:52.488Z,23.12
2016-07-20T06:28:52.488Z,23.09
2016-07-20T06:29:52.502Z,23.12
2016-07-20T06:30:52.517Z,23.16
2016-07-20T06:31:52.502Z,23.21
2016-07-20T06:32:52.540Z,23.15
2016-07-20T06:33:52.512Z,23.16
2016-07-20T06:34:52.537Z,23.15
2016-07-20T06:35:52.545Z,23.16
2016-07-20T06:36:52.570Z,23.18
2016-07-20T06:37:52.563Z,23.18
2016-07-20T06:38:52.559Z,23.18
2016-07-20T06:39:52.574Z,23.15
2016-07-20T06:40:52.586Z,23.15
2016-07-20T06:41:52.593Z,23.16
2016-07-20T06:42:52.601Z,23.16
2016-07-20T06:43:52.612Z,23.15
2016-07-20T06:44:52.640Z,23.21
2016-07-20T06:45:53.328Z,23.16
2016-07-20T06:46:52.654Z,23.19
2016-07-20T06:47:52.647Z,23.14
2016-07-20T06:48:52.645Z,23.21
2016-07-20T06:49:52.660Z,23.24
2016-07-20T06:50:52.704Z,23.14
2016-07-20T06:51:52.701Z,23.19
2016-07-20T06:52:52.711Z,23.25
2016-07-20T06:53:52.689Z,23.19
2016-07-20T06:54:52.733Z,23.26
2016-07-20T06:55:52.735Z,23.26
2016-07-20T06:56:52.728Z,23.14
2016-07-20T06:57:53.437Z,23.16
2016-07-20T06:58:52.757Z,23.18
2016-07-20T06:59:52.755Z,23.14
2016-07-20T07:00:52.739Z,23.21
2016-07-20T07:01:52.773Z,23.21
2016-07-20T07:02:52.778Z,23.22
2016-07-20T07:03:52.791Z,23.14
2016-07-20T07:04:52.793Z,23.19
2016-07-20T07:05:52.823Z,23.28
2016-07-20T07:06:52.808Z,23.21
2016-07-20T07:07:52.834Z,23.24
2016-07-20T07:08:52.815Z,23.19
2016-07-20T07:09:52.849Z,23.21
2016-07-20T07:10:52.869Z,23.18
2016-07-20T07:11:53.212Z,23.22
2016-07-20T07:12:52.875Z,23.25
2016-07-20T07:13:52.877Z,23.24
2016-07-20T07:14:52.879Z,23.29
2016-07-20T07:15:52.907Z,23.26
2016-07-20T07:16:52.900Z,23.26
2016-07-20T07:17:52.928Z,23.25
2016-07-20T07:18:52.934Z,23.32
2016-07-20T07:19:52.908Z,23.26
2016-07-20T07:20:52.941Z,23.28
2016-07-20T07:21:52.953Z,23.26
2016-07-20T07:22:52.950Z,23.32
2016-07-20T07:23:52.964Z,23.28
2016-07-20T07:24:52.966Z,23.34
2016-07-20T07:25:52.982Z,23.35
2016-07-20T07:26:52.974Z,23.35
2016-07-20T07:27:52.992Z,23.26
2016-07-20T07:28:52.998Z,23.38
2016-07-20T07:29:53.007Z,23.38
2016-07-20T07:30:53.023Z,23.37
2016-07-20T07:31:53.035Z,23.34
2016-07-20T07:32:53.052Z,23.4
2016-07-20T07:33:53.058Z,23.32
2016-07-20T07:34:53.073Z,23.37
2016-07-20T07:35:53.085Z,23.44
2016-07-20T07:36:53.080Z,23.35
2016-07-20T07:37:53.068Z,23.41
2016-07-20T07:38:53.093Z,23.4
2016-07-20T07:39:53.084Z,23.35
2016-07-20T07:40:53.102Z,23.44
2016-07-20T07:41:53.108Z,23.4
2016-07-20T07:42:53.121Z,23.42
2016-07-20T07:43:53.150Z,23.37
2016-07-20T07:44:53.158Z,23.48
2016-07-20T07:45:53.135Z,23.57
2016-07-20T07:46:53.171Z,23.5
2016-07-20T07:47:53.171Z,23.56
2016-07-20T07:48:53.181Z,23.55
2016-07-20T07:49:53.180Z,23.45
2016-07-20T07:50:53.209Z,23.45
2016-07-20T07:51:53.201Z,23.48
2016-07-20T07:52:53.195Z,23.53
2016-07-20T07:53:53.215Z,23.53
2016-07-20T07:54:53.228Z,23.52
2016-07-20T07:55:53.237Z,23.53
2016-07-20T07:56:53.258Z,23.5
2016-07-20T07:57:53.257Z,23.48
2016-07-20T07:58:53.245Z,23.42
2016-07-20T07:59:53.277Z,23.53
2016-07-20T08:00:53.286Z,23.52
2016-07-20T08:01:53.297Z,23.53
2016-07-20T08:02:53.295Z,23.6
2016-07-20T08:03:53.313Z,23.56
2016-07-20T08:04:53.327Z,23.53
2016-07-20T08:05:53.556Z,23.52
2016-07-20T08:06:53.341Z,23.56
2016-07-20T08:07:53.343Z,23.59
2016-07-20T08:08:53.348Z,23.59
2016-07-20T08:09:53.358Z,23.59
2016-07-20T08:10:53.384Z,23.7
2016-07-20T08:11:53.432Z,23.67
2016-07-20T08:12:53.394Z,23.62
2016-07-20T08:13:53.400Z,23.59
2016-07-20T08:14:53.387Z,23.67
2016-07-20T08:15:53.396Z,23.63
2016-07-20T08:16:53.425Z,23.57
2016-07-20T08:17:53.444Z,23.66
2016-07-20T08:18:53.429Z,23.72
2016-07-20T08:19:53.448Z,23.71
2016-07-20T08:20:53.441Z,23.75
2016-07-20T08:21:53.474Z,23.7
2016-07-20T08:22:53.500Z,23.74
2016-07-20T08:23:53.485Z,23.67
2016-07-20T08:24:53.491Z,23.75
2016-07-20T08:25:53.515Z,23.77
2016-07-20T08:26:53.518Z,23.72
2016-07-20T08:27:53.529Z,23.74
2016-07-20T08:28:53.548Z,23.78
2016-07-20T08:29:53.550Z,23.78
2016-07-20T08:30:53.548Z,23.78
2016-07-20T08:31:53.581Z,23.79
2016-07-20T08:32:53.568Z,23.77
2016-07-20T08:33:53.563Z,23.74
2016-07-20T08:34:53.578Z,23.81
2016-07-20T08:35:53.608Z,23.78
2016-07-20T08:36:53.616Z,23.81
2016-07-20T08:37:53.605Z,23.82
2016-07-20T08:38:53.630Z,23.79
2016-07-20T08:39:53.647Z,23.85
2016-07-20T08:40:53.648Z,23.84
2016-07-20T08:41:53.630Z,23.85
2016-07-20T08:42:53.669Z,23.85
2016-07-20T08:43:53.657Z,23.94
2016-07-20T08:44:53.661Z,23.85
2016-07-20T08:45:53.694Z,23.96
2016-07-20T08:46:53.698Z,23.93
2016-07-20T08:47:53.702Z,24
2016-07-20T08:48:53.698Z,23.97
2016-07-20T08:49:53.742Z,23.94
2016-07-20T08:50:53.709Z,23.96
2016-07-20T08:51:53.738Z,24.08
2016-07-20T08:52:53.756Z,24.07
2016-07-20T08:53:53.768Z,24.03
2016-07-20T08:54:53.758Z,24.08
2016-07-20T08:55:53.783Z,24.02
2016-07-20T08:56:53.788Z,24.07
2016-07-20T08:57:53.797Z,24.04
2016-07-20T08:58:53.795Z,24.07
2016-07-20T08:59:53.794Z,24.08
2016-07-20T09:00:53.810Z,24.08
2016-07-20T09:01:53.836Z,24.11
2016-07-20T09:02:53.859Z,24.11
2016-07-20T09:03:53.867Z,24.08
2016-07-20T09:04:53.847Z,24.07
2016-07-20T09:05:53.876Z,24.12
2016-07-20T09:06:53.887Z,24.09
2016-07-20T09:07:53.897Z,24.19
2016-07-20T09:08:53.908Z,24.19
2016-07-20T09:09:53.903Z,24.18
2016-07-20T09:10:53.924Z,24.17
2016-07-20T09:11:53.916Z,24.15
2016-07-20T09:12:53.942Z,24.19
2016-07-20T09:13:53.955Z,24.19
2016-07-20T09:14:53.940Z,24.27
2016-07-20T09:15:53.962Z,24.19
2016-07-20T09:16:53.965Z,24.24
2016-07-20T09:17:53.990Z,24.27
2016-07-20T09:18:53.973Z,24.22
2016-07-20T09:19:53.993Z,24.22
2016-07-20T09:20:54.008Z,24.27
2016-07-20T09:21:54.027Z,24.19
2016-07-20T09:22:54.023Z,24.27
2016-07-20T09:23:54.037Z,24.26
2016-07-20T09:24:54.020Z,24.29
2016-07-20T09:25:54.038Z,24.18
2016-07-20T09:26:54.052Z,24.24
2016-07-20T09:27:54.748Z,24.18
2016-07-20T09:28:54.060Z,24.22
2016-07-20T09:29:54.108Z,24.26
2016-07-20T09:30:54.086Z,24.29
2016-07-20T09:31:54.102Z,24.3
2016-07-20T09:32:54.127Z,24.27
2016-07-20T09:33:54.144Z,24.27
2016-07-20T09:34:54.139Z,24.27
2016-07-20T09:35:54.133Z,24.32
2016-07-20T09:36:54.148Z,24.33
2016-07-20T09:37:54.155Z,24.26
2016-07-20T09:38:54.150Z,24.3
2016-07-20T09:39:54.194Z,24.27
2016-07-20T09:40:54.202Z,24.24
2016-07-20T09:41:54.197Z,24.22
2016-07-20T09:42:54.198Z,24.3
2016-07-20T09:43:54.205Z,24.3
2016-07-20T09:44:54.221Z,24.33
2016-07-20T09:45:54.238Z,24.32
2016-07-20T09:46:54.227Z,24.3
2016-07-20T09:47:54.266Z,24.33
2016-07-20T09:48:54.249Z,24.36
2016-07-20T09:49:54.280Z,24.3
2016-07-20T09:50:54.302Z,24.4
2016-07-20T09:51:54.296Z,24.34
2016-07-20T09:52:54.296Z,24.33
2016-07-20T09:53:54.312Z,24.36
2016-07-20T09:54:54.339Z,24.37
2016-07-20T09:55:54.326Z,24.34
2016-07-20T09:56:54.324Z,24.45
2016-07-20T09:57:54.345Z,24.39
2016-07-20T09:58:54.366Z,24.42
2016-07-20T09:59:54.374Z,24.46
2016-07-20T10:00:54.358Z,24.44
2016-07-20T10:01:54.381Z,24.45
2016-07-20T10:02:54.400Z,24.45
2016-07-20T10:03:54.398Z,24.49
2016-07-20T10:04:54.407Z,24.45
2016-07-20T10:05:54.426Z,24.45
2016-07-20T10:06:54.443Z,24.49
2016-07-20T10:07:54.441Z,24.51
2016-07-20T10:08:54.451Z,24.52
2016-07-20T10:09:54.457Z,24.52
2016-07-20T10:10:54.469Z,24.54
2016-07-20T10:11:54.479Z,24.56
2016-07-20T10:12:54.509Z,24.59
2016-07-20T10:13:54.481Z,24.54
2016-07-20T10:14:54.494Z,24.56
2016-07-20T10:15:54.537Z,24.54
2016-07-20T10:16:54.530Z,24.49
2016-07-20T10:17:54.542Z,24.56
2016-07-20T10:18:54.527Z,24.58
2016-07-20T10:19:55.249Z,24.56
2016-07-20T10:20:54.545Z,24.58
2016-07-20T10:21:54.566Z,24.77
2016-07-20T10:22:54.568Z,24.78
2016-07-20T10:23:54.584Z,24.71
2016-07-20T10:24:54.601Z,24.66
2016-07-20T10:25:54.589Z,24.74
2016-07-20T10:26:54.617Z,24.71
2016-07-20T10:27:54.643Z,24.74
2016-07-20T10:28:54.630Z,24.74
2016-07-20T10:29:54.659Z,24.75
2016-07-20T10:30:54.649Z,24.71
2016-07-20T10:31:54.679Z,24.78
2016-07-20T10:32:54.656Z,24.75
2016-07-20T10:33:54.677Z,24.78
2016-07-20T10:34:54.722Z,24.74
2016-07-20T10:35:54.695Z,24.74
2016-07-20T10:36:54.735Z,24.77
2016-07-20T10:37:54.727Z,24.86
2016-07-20T10:38:54.713Z,24.71
2016-07-20T10:39:54.740Z,24.83
2016-07-20T10:40:54.768Z,24.83
2016-07-20T10:41:54.751Z,24.82
2016-07-20T10:42:54.762Z,24.75
2016-07-20T10:43:54.782Z,24.77
2016-07-20T10:44:54.803Z,24.8
2016-07-20T10:45:54.804Z,24.8
2016-07-20T10:46:54.803Z,24.77
2016-07-20T10:47:54.792Z,24.82
2016-07-20T10:48:54.826Z,24.86
2016-07-20T10:49:54.835Z,24.93
2016-07-20T10:50:54.858Z,24.92
2016-07-20T10:51:54.856Z,24.87
2016-07-20T10:52:54.863Z,24.96
2016-07-20T10:53:54.857Z,24.96
2016-07-20T10:54:54.885Z,24.93
2016-07-20T10:55:54.891Z,24.92
2016-07-20T10:56:54.891Z,24.92
2016-07-20T10:57:54.916Z,24.92
2016-07-20T10:58:54.924Z,25.08
2016-07-20T10:59:54.949Z,25.01
2016-07-20T11:00:54.946Z,25.09
2016-07-20T11:01:54.962Z,25.07
2016-07-20T11:02:54.960Z,25.07
2016-07-20T11:03:54.968Z,25.2
2016-07-20T11:04:54.990Z,25.09
2016-07-20T11:05:55.002Z,25.14
2016-07-20T11:06:55.019Z,25.19
2016-07-20T11:07:55.021Z,25.24
2016-07-20T11:08:55.007Z,25.17
2016-07-20T11:09:55.024Z,25.22
2016-07-20T11:10:55.048Z,25.27
2016-07-20T11:11:55.036Z,25.24
2016-07-20T11:12:55.075Z,25.17
2016-07-20T11:13:55.081Z,25.22
2016-07-20T11:14:55.093Z,25.24
2016-07-20T11:15:55.073Z,25.26
2016-07-20T11:16:55.086Z,25.26
2016-07-20T11:17:55.107Z,25.29
2016-07-20T11:18:55.110Z,25.34
2016-07-20T11:19:55.134Z,25.32
2016-07-20T11:20:55.128Z,25.37
2016-07-20T11:21:55.142Z,25.32
2016-07-20T11:22:55.134Z,25.37
2016-07-20T11:23:55.152Z,25.38
2016-07-20T11:24:55.179Z,25.33
2016-07-20T11:25:55.165Z,25.37
2016-07-20T11:26:55.165Z,25.37
2016-07-20T11:27:55.181Z,25.41
2016-07-20T11:28:55.220Z,25.45
2016-07-20T11:29:55.198Z,25.41
2016-07-20T11:30:55.220Z,25.42
2016-07-20T11:31:55.220Z,25.47
2016-07-20T11:32:55.233Z,25.45
2016-07-20T11:33:55.228Z,25.49
2016-07-20T11:34:55.253Z,25.49
2016-07-20T11:35:55.247Z,25.48
2016-07-20T11:36:55.267Z,25.51
2016-07-20T11:37:55.268Z,25.51
2016-07-20T11:38:55.292Z,25.49
2016-07-20T11:39:55.291Z,25.49
2016-07-20T11:40:55.293Z,25.52
2016-07-20T11:41:55.303Z,25.52
2016-07-20T11:42:55.325Z,25.52
2016-07-20T11:43:55.336Z,25.54
2016-07-20T11:44:55.337Z,25.56
2016-07-20T11:45:55.352Z,25.62
2016-07-20T11:46:55.369Z,25.59
2016-07-20T11:47:55.371Z,25.54
2016-07-20T11:48:55.382Z,25.64
2016-07-20T11:49:55.410Z,25.62
2016-07-20T11:50:55.395Z,25.71
2016-07-20T11:51:55.414Z,25.66
2016-07-20T11:52:55.430Z,25.66
2016-07-20T11:53:55.406Z,25.66
2016-07-20T11:54:55.447Z,25.69
2016-07-20T11:55:55.455Z,25.69
2016-07-20T11:56:55.434Z,25.69
2016-07-20T11:57:55.449Z,25.71
2016-07-20T11:58:55.468Z,25.79
2016-07-20T11:59:55.474Z,25.7
2016-07-20T12:00:55.474Z,25.64
2016-07-20T12:01:55.484Z,25.67
2016-07-20T12:02:55.519Z,25.69
2016-07-20T12:03:55.516Z,25.74
2016-07-20T12:04:55.514Z,25.76
2016-07-20T12:05:55.525Z,25.7
2016-07-20T12:06:55.546Z,25.75
2016-07-20T12:07:55.542Z,25.79
2016-07-20T12:08:55.580Z,25.79
2016-07-20T12:09:55.593Z,25.81
2016-07-20T12:10:55.592Z,25.74
2016-07-20T12:11:55.588Z,25.71
2016-07-20T12:12:55.604Z,25.78
2016-07-20T12:13:55.599Z,25.69
2016-07-20T12:14:55.617Z,25.78
2016-07-20T12:15:55.629Z,25.78
2016-07-20T12:16:55.634Z,25.79
2016-07-20T12:17:55.660Z,25.82
2016-07-20T12:18:55.679Z,25.86
2016-07-20T12:19:55.663Z,25.82
2016-07-20T12:20:55.663Z,25.79
2016-07-20T12:21:55.694Z,25.93
2016-07-20T12:22:55.712Z,25.85
2016-07-20T12:23:55.724Z,25.82
2016-07-20T12:24:55.696Z,25.91
2016-07-20T12:25:55.726Z,25.88
2016-07-20T12:26:55.737Z,25.86
2016-07-20T12:27:55.744Z,25.85
2016-07-20T12:28:55.756Z,25.85
2016-07-20T12:29:55.754Z,25.88
2016-07-20T12:30:55.760Z,26
2016-07-20T12:31:55.784Z,25.97
2016-07-20T12:32:55.778Z,25.94
2016-07-20T12:33:55.813Z,25.99
2016-07-20T12:34:55.793Z,25.94
2016-07-20T12:35:55.809Z,25.93
2016-07-20T12:36:55.824Z,25.93
2016-07-20T12:37:55.842Z,26
2016-07-20T12:38:55.830Z,26.04
2016-07-20T12:39:55.858Z,26.06
2016-07-20T12:40:55.860Z,26.06
2016-07-20T12:41:55.868Z,26.06
2016-07-20T12:42:55.890Z,26.09
2016-07-20T12:43:55.880Z,26.09
2016-07-20T12:44:55.882Z,26.06
2016-07-20T12:45:55.910Z,26.04
2016-07-20T12:46:55.916Z,26.04
2016-07-20T12:47:55.931Z,26.03
2016-07-20T12:48:55.943Z,26.09
2016-07-20T12:49:55.927Z,26.04
2016-07-20T12:50:55.949Z,26.07
2016-07-20T12:51:55.958Z,26.09
2016-07-20T12:52:55.965Z,26.07
2016-07-20T12:53:55.975Z,26.12
2016-07-20T12:54:55.987Z,26.12
2016-07-20T12:55:55.986Z,26.22